Terminal Aerodrome Forecast
Issued by NWS

Home | Current Version | Previous Version | Text Only | Print | Product List | Glossary On
Versions: 1 2 3 4 5 6 7 8 9 10 11 12 13 14 15 16 17 18 19 20 21 22 23 24 25 26 27 28 29 30 31 32 33 34 35 36 37 38 39 40 41 42 43 44 45 46 47 48 49 50
000
FTUS45 KBOU 212315 AAD
TAFAPA
TAF AMD
KAPA 212315Z 2123/2218 VRB04KT P6SM BKN030 BKN040
     FM220000 33008KT P6SM VCSH SCT035 BKN060 OVC110
      TEMPO 2201/2205 -SHRA BKN018
     FM220500 14012G18KT 5SM -SHRA BR SCT012 OVC025
      TEMPO 2205/2209 3SM -RA BR BKN012
     FM220900 11010KT 3SM -RA BKN009 OVC020
     FM221600 VRB05KT P6SM VCSH SCT015 BKN035 BKN070=

USA.gov is the U.S. government's official web portal to all federal, state and local government web resources and services.